sensor_id;sensor_type;location;lat;lon;timestamp;P1;durP1;ratioP1;P2;durP2;ratioP2
16826;SDS011;8530;49.540;8.576;2024-03-08T00:00:47;23.03;;;18.33;;
16826;SDS011;8530;49.540;8.576;2024-03-08T00:03:13;26.70;;;18.60;;
16826;SDS011;8530;49.540;8.576;2024-03-08T00:05:41;25.60;;;18.90;;
16826;SDS011;8530;49.540;8.576;2024-03-08T00:08:08;25.80;;;16.90;;
16826;SDS011;8530;49.540;8.576;2024-03-08T00:10:35;25.73;;;18.10;;
16826;SDS011;8530;49.540;8.576;2024-03-08T00:13:03;25.33;;;17.57;;
16826;SDS011;8530;49.540;8.576;2024-03-08T00:15:30;26.80;;;19.00;;
16826;SDS011;8530;49.540;8.576;2024-03-08T00:17:57;25.33;;;17.13;;
16826;SDS011;8530;49.540;8.576;2024-03-08T00:20:24;25.13;;;18.30;;
16826;SDS011;8530;49.540;8.576;2024-03-08T00:22:52;24.67;;;17.03;;
16826;SDS011;8530;49.540;8.576;2024-03-08T00:25:18;31.03;;;18.67;;
16826;SDS011;8530;49.540;8.576;2024-03-08T00:27:45;27.27;;;19.87;;
16826;SDS011;8530;49.540;8.576;2024-03-08T00:30:14;26.03;;;19.37;;
16826;SDS011;8530;49.540;8.576;2024-03-08T00:32:41;31.33;;;19.20;;
16826;SDS011;8530;49.540;8.576;2024-03-08T00:35:08;26.40;;;18.80;;
16826;SDS011;8530;49.540;8.576;2024-03-08T00:37:34;27.70;;;19.47;;
16826;SDS011;8530;49.540;8.576;2024-03-08T00:40:03;27.30;;;19.67;;
16826;SDS011;8530;49.540;8.576;2024-03-08T00:42:32;26.10;;;19.00;;
16826;SDS011;8530;49.540;8.576;2024-03-08T00:44:59;28.27;;;19.33;;
16826;SDS011;8530;49.540;8.576;2024-03-08T00:47:26;24.30;;;18.17;;
16826;SDS011;8530;49.540;8.576;2024-03-08T00:49:52;30.37;;;19.57;;
16826;SDS011;8530;49.540;8.576;2024-03-08T00:52:21;28.87;;;19.50;;
16826;SDS011;8530;49.540;8.576;2024-03-08T00:54:49;24.63;;;19.77;;
16826;SDS011;8530;49.540;8.576;2024-03-08T00:57:17;28.43;;;17.67;;
16826;SDS011;8530;49.540;8.576;2024-03-08T00:59:44;27.23;;;19.23;;
16826;SDS011;8530;49.540;8.576;2024-03-08T01:02:11;29.60;;;20.80;;
16826;SDS011;8530;49.540;8.576;2024-03-08T01:04:37;27.20;;;18.97;;
16826;SDS011;8530;49.540;8.576;2024-03-08T01:07:04;28.97;;;18.30;;
16826;SDS011;8530;49.540;8.576;2024-03-08T01:09:31;25.00;;;18.20;;
16826;SDS011;8530;49.540;8.576;2024-03-08T01:11:57;29.07;;;18.60;;
16826;SDS011;8530;49.540;8.576;2024-03-08T01:14:26;29.57;;;20.67;;
16826;SDS011;8530;49.540;8.576;2024-03-08T01:16:53;24.17;;;20.00;;
16826;SDS011;8530;49.540;8.576;2024-03-08T01:19:21;24.13;;;17.20;;
16826;SDS011;8530;49.540;8.576;2024-03-08T01:21:48;29.77;;;20.00;;
16826;SDS011;8530;49.540;8.576;2024-03-08T01:24:15;27.50;;;19.80;;
16826;SDS011;8530;49.540;8.576;2024-03-08T01:26:42;28.70;;;19.23;;
16826;SDS011;8530;49.540;8.576;2024-03-08T01:29:09;29.43;;;18.60;;
16826;SDS011;8530;49.540;8.576;2024-03-08T01:31:37;30.10;;;19.13;;
16826;SDS011;8530;49.540;8.576;2024-03-08T01:34:04;24.93;;;18.10;;
16826;SDS011;8530;49.540;8.576;2024-03-08T01:36:31;26.87;;;18.70;;
16826;SDS011;8530;49.540;8.576;2024-03-08T01:38:58;27.50;;;19.07;;
16826;SDS011;8530;49.540;8.576;2024-03-08T01:41:24;24.90;;;17.23;;
16826;SDS011;8530;49.540;8.576;2024-03-08T01:43:54;30.33;;;17.97;;
16826;SDS011;8530;49.540;8.576;2024-03-08T01:46:21;28.23;;;17.80;;
16826;SDS011;8530;49.540;8.576;2024-03-08T01:48:49;29.10;;;19.30;;
16826;SDS011;8530;49.540;8.576;2024-03-08T01:51:17;29.00;;;20.33;;
16826;SDS011;8530;49.540;8.576;2024-03-08T01:53:45;24.40;;;18.10;;
16826;SDS011;8530;49.540;8.576;2024-03-08T01:56:12;27.27;;;18.40;;
16826;SDS011;8530;49.540;8.576;2024-03-08T01:58:40;29.03;;;17.00;;
16826;SDS011;8530;49.540;8.576;2024-03-08T02:01:08;26.10;;;18.30;;
16826;SDS011;8530;49.540;8.576;2024-03-08T02:03:37;26.33;;;18.90;;
16826;SDS011;8530;49.540;8.576;2024-03-08T02:06:05;25.10;;;18.30;;
16826;SDS011;8530;49.540;8.576;2024-03-08T02:08:35;26.40;;;18.27;;
16826;SDS011;8530;49.540;8.576;2024-03-08T02:11:02;29.07;;;19.40;;
16826;SDS011;8530;49.540;8.576;2024-03-08T02:13:29;29.00;;;17.93;;
16826;SDS011;8530;49.540;8.576;2024-03-08T02:15:57;29.83;;;20.17;;
16826;SDS011;8530;49.540;8.576;2024-03-08T02:18:25;26.90;;;19.07;;
16826;SDS011;8530;49.540;8.576;2024-03-08T02:20:54;26.50;;;18.63;;
16826;SDS011;8530;49.540;8.576;2024-03-08T02:23:21;26.03;;;18.63;;
16826;SDS011;8530;49.540;8.576;2024-03-08T02:25:49;22.53;;;18.17;;
16826;SDS011;8530;49.540;8.576;2024-03-08T02:28:16;25.77;;;16.40;;
16826;SDS011;8530;49.540;8.576;2024-03-08T02:30:44;23.47;;;16.60;;
16826;SDS011;8530;49.540;8.576;2024-03-08T02:33:13;24.87;;;18.77;;
16826;SDS011;8530;49.540;8.576;2024-03-08T02:35:41;25.50;;;17.77;;
16826;SDS011;8530;49.540;8.576;2024-03-08T02:38:12;27.70;;;19.57;;
16826;SDS011;8530;49.540;8.576;2024-03-08T02:40:41;24.13;;;17.67;;
16826;SDS011;8530;49.540;8.576;2024-03-08T02:43:08;24.43;;;17.80;;
16826;SDS011;8530;49.540;8.576;2024-03-08T02:45:35;23.57;;;17.77;;
16826;SDS011;8530;49.540;8.576;2024-03-08T02:48:01;24.17;;;16.23;;
16826;SDS011;8530;49.540;8.576;2024-03-08T02:50:28;25.23;;;17.13;;
16826;SDS011;8530;49.540;8.576;2024-03-08T02:52:55;25.03;;;15.80;;
16826;SDS011;8530;49.540;8.576;2024-03-08T02:55:23;22.93;;;17.40;;
16826;SDS011;8530;49.540;8.576;2024-03-08T02:57:51;27.13;;;17.30;;
16826;SDS011;8530;49.540;8.576;2024-03-08T03:00:19;22.53;;;16.63;;
16826;SDS011;8530;49.540;8.576;2024-03-08T03:02:48;24.03;;;17.70;;
16826;SDS011;8530;49.540;8.576;2024-03-08T03:05:17;24.90;;;18.33;;
16826;SDS011;8530;49.540;8.576;2024-03-08T03:07:43;29.60;;;17.70;;
16826;SDS011;8530;49.540;8.576;2024-03-08T03:10:10;22.40;;;17.90;;
16826;SDS011;8530;49.540;8.576;2024-03-08T03:12:43;28.83;;;17.90;;
16826;SDS011;8530;49.540;8.576;2024-03-08T03:15:10;27.07;;;18.10;;
16826;SDS011;8530;49.540;8.576;2024-03-08T03:17:37;25.90;;;16.77;;
16826;SDS011;8530;49.540;8.576;2024-03-08T03:20:05;23.40;;;17.90;;
16826;SDS011;8530;49.540;8.576;2024-03-08T03:22:36;23.83;;;17.73;;
16826;SDS011;8530;49.540;8.576;2024-03-08T03:25:03;25.43;;;17.00;;
16826;SDS011;8530;49.540;8.576;2024-03-08T03:27:31;26.27;;;17.83;;
16826;SDS011;8530;49.540;8.576;2024-03-08T03:29:59;21.63;;;16.87;;
16826;SDS011;8530;49.540;8.576;2024-03-08T03:32:45;23.43;;;17.83;;
16826;SDS011;8530;49.540;8.576;2024-03-08T03:35:12;24.37;;;18.37;;
16826;SDS011;8530;49.540;8.576;2024-03-08T03:37:40;25.50;;;17.00;;
16826;SDS011;8530;49.540;8.576;2024-03-08T03:40:08;23.60;;;18.07;;
16826;SDS011;8530;49.540;8.576;2024-03-08T03:42:35;22.50;;;16.40;;
16826;SDS011;8530;49.540;8.576;2024-03-08T03:45:05;22.80;;;16.73;;
16826;SDS011;8530;49.540;8.576;2024-03-08T03:47:32;22.97;;;17.40;;
16826;SDS011;8530;49.540;8.576;2024-03-08T03:49:58;24.70;;;16.90;;
16826;SDS011;8530;49.540;8.576;2024-03-08T03:52:27;24.77;;;18.87;;
16826;SDS011;8530;49.540;8.576;2024-03-08T03:54:53;26.87;;;19.90;;
16826;SDS011;8530;49.540;8.576;2024-03-08T03:57:20;24.23;;;16.83;;
16826;SDS011;8530;49.540;8.576;2024-03-08T03:59:48;27.77;;;17.97;;
16826;SDS011;8530;49.540;8.576;2024-03-08T04:02:17;25.07;;;19.40;;
16826;SDS011;8530;49.540;8.576;2024-03-08T04:04:45;24.60;;;17.90;;
16826;SDS011;8530;49.540;8.576;2024-03-08T04:07:12;27.57;;;19.03;;
16826;SDS011;8530;49.540;8.576;2024-03-08T04:09:39;24.53;;;17.43;;
16826;SDS011;8530;49.540;8.576;2024-03-08T04:12:06;23.57;;;16.20;;
16826;SDS011;8530;49.540;8.576;2024-03-08T04:14:34;23.07;;;17.80;;
16826;SDS011;8530;49.540;8.576;2024-03-08T04:17:01;25.20;;;17.80;;
16826;SDS011;8530;49.540;8.576;2024-03-08T04:19:30;24.50;;;17.30;;
16826;SDS011;8530;49.540;8.576;2024-03-08T04:21:56;28.80;;;18.63;;
16826;SDS011;8530;49.540;8.576;2024-03-08T04:24:23;23.50;;;18.20;;
16826;SDS011;8530;49.540;8.576;2024-03-08T04:26:50;30.47;;;19.60;;
16826;SDS011;8530;49.540;8.576;2024-03-08T04:29:18;23.43;;;17.90;;
16826;SDS011;8530;49.540;8.576;2024-03-08T04:31:44;23.07;;;15.80;;
16826;SDS011;8530;49.540;8.576;2024-03-08T04:34:12;24.60;;;17.90;;
16826;SDS011;8530;49.540;8.576;2024-03-08T04:36:41;25.23;;;19.30;;
16826;SDS011;8530;49.540;8.576;2024-03-08T04:39:07;26.77;;;19.07;;
16826;SDS011;8530;49.540;8.576;2024-03-08T04:41:37;23.73;;;18.17;;
16826;SDS011;8530;49.540;8.576;2024-03-08T04:44:04;24.67;;;18.10;;
16826;SDS011;8530;49.540;8.576;2024-03-08T04:46:31;28.03;;;18.63;;
16826;SDS011;8530;49.540;8.576;2024-03-08T04:49:00;26.60;;;18.03;;
16826;SDS011;8530;49.540;8.576;2024-03-08T04:51:27;24.83;;;18.80;;
16826;SDS011;8530;49.540;8.576;2024-03-08T04:53:55;32.57;;;21.10;;
16826;SDS011;8530;49.540;8.576;2024-03-08T04:56:22;28.30;;;18.63;;
16826;SDS011;8530;49.540;8.576;2024-03-08T04:58:48;25.73;;;19.50;;
16826;SDS011;8530;49.540;8.576;2024-03-08T05:01:15;25.97;;;19.37;;
16826;SDS011;8530;49.540;8.576;2024-03-08T05:03:42;24.60;;;19.37;;
16826;SDS011;8530;49.540;8.576;2024-03-08T05:06:10;27.03;;;19.47;;
16826;SDS011;8530;49.540;8.576;2024-03-08T05:08:36;32.10;;;20.00;;
16826;SDS011;8530;49.540;8.576;2024-03-08T05:11:04;24.73;;;17.53;;
16826;SDS011;8530;49.540;8.576;2024-03-08T05:13:32;33.43;;;21.70;;
16826;SDS011;8530;49.540;8.576;2024-03-08T05:15:59;26.70;;;19.70;;
16826;SDS011;8530;49.540;8.576;2024-03-08T05:18:26;23.73;;;18.87;;
16826;SDS011;8530;49.540;8.576;2024-03-08T05:20:53;22.47;;;17.87;;
16826;SDS011;8530;49.540;8.576;2024-03-08T05:23:20;26.90;;;20.17;;
16826;SDS011;8530;49.540;8.576;2024-03-08T05:25:47;23.83;;;18.90;;
16826;SDS011;8530;49.540;8.576;2024-03-08T05:28:15;26.43;;;19.60;;
16826;SDS011;8530;49.540;8.576;2024-03-08T05:30:42;24.90;;;18.53;;
16826;SDS011;8530;49.540;8.576;2024-03-08T05:33:09;25.57;;;19.13;;
16826;SDS011;8530;49.540;8.576;2024-03-08T05:35:36;28.93;;;19.57;;
16826;SDS011;8530;49.540;8.576;2024-03-08T05:38:03;26.90;;;20.73;;
16826;SDS011;8530;49.540;8.576;2024-03-08T05:40:30;28.20;;;19.67;;
16826;SDS011;8530;49.540;8.576;2024-03-08T05:42:57;29.20;;;19.83;;
16826;SDS011;8530;49.540;8.576;2024-03-08T05:45:25;26.93;;;19.80;;
16826;SDS011;8530;49.540;8.576;2024-03-08T05:47:52;28.70;;;20.93;;
16826;SDS011;8530;49.540;8.576;2024-03-08T05:50:19;32.20;;;21.00;;
16826;SDS011;8530;49.540;8.576;2024-03-08T05:52:45;28.70;;;19.00;;
16826;SDS011;8530;49.540;8.576;2024-03-08T05:55:13;25.27;;;19.20;;
16826;SDS011;8530;49.540;8.576;2024-03-08T05:57:40;30.27;;;21.30;;
16826;SDS011;8530;49.540;8.576;2024-03-08T06:00:07;25.20;;;18.93;;
16826;SDS011;8530;49.540;8.576;2024-03-08T06:02:38;30.10;;;18.90;;
16826;SDS011;8530;49.540;8.576;2024-03-08T06:05:07;27.30;;;20.77;;
16826;SDS011;8530;49.540;8.576;2024-03-08T06:07:34;26.90;;;20.63;;
16826;SDS011;8530;49.540;8.576;2024-03-08T06:10:01;26.10;;;18.80;;
16826;SDS011;8530;49.540;8.576;2024-03-08T06:12:29;35.37;;;20.67;;
16826;SDS011;8530;49.540;8.576;2024-03-08T06:14:58;29.60;;;19.67;;
16826;SDS011;8530;49.540;8.576;2024-03-08T06:17:25;26.53;;;19.33;;
16826;SDS011;8530;49.540;8.576;2024-03-08T06:19:53;29.90;;;20.13;;
16826;SDS011;8530;49.540;8.576;2024-03-08T06:22:20;27.60;;;18.93;;
16826;SDS011;8530;49.540;8.576;2024-03-08T06:24:47;31.27;;;22.37;;
16826;SDS011;8530;49.540;8.576;2024-03-08T06:27:13;22.00;;;17.50;;
16826;SDS011;8530;49.540;8.576;2024-03-08T06:29:40;30.90;;;21.70;;
16826;SDS011;8530;49.540;8.576;2024-03-08T06:32:07;38.40;;;21.77;;
16826;SDS011;8530;49.540;8.576;2024-03-08T06:34:33;28.93;;;20.50;;
16826;SDS011;8530;49.540;8.576;2024-03-08T06:37:02;27.57;;;20.20;;
16826;SDS011;8530;49.540;8.576;2024-03-08T06:39:28;28.40;;;19.27;;
16826;SDS011;8530;49.540;8.576;2024-03-08T06:41:56;26.33;;;18.87;;
16826;SDS011;8530;49.540;8.576;2024-03-08T06:44:23;30.87;;;21.43;;
16826;SDS011;8530;49.540;8.576;2024-03-08T06:46:50;29.03;;;20.30;;
16826;SDS011;8530;49.540;8.576;2024-03-08T06:49:17;32.10;;;20.43;;
16826;SDS011;8530;49.540;8.576;2024-03-08T06:51:44;26.63;;;18.43;;
16826;SDS011;8530;49.540;8.576;2024-03-08T06:54:12;27.57;;;20.70;;
16826;SDS011;8530;49.540;8.576;2024-03-08T06:56:39;31.63;;;19.70;;
16826;SDS011;8530;49.540;8.576;2024-03-08T06:59:06;28.03;;;18.90;;
16826;SDS011;8530;49.540;8.576;2024-03-08T07:01:35;34.10;;;19.40;;
16826;SDS011;8530;49.540;8.576;2024-03-08T07:04:03;23.97;;;16.90;;
16826;SDS011;8530;49.540;8.576;2024-03-08T07:06:31;24.50;;;18.10;;
16826;SDS011;8530;49.540;8.576;2024-03-08T07:08:59;21.87;;;15.57;;
16826;SDS011;8530;49.540;8.576;2024-03-08T07:11:27;22.53;;;16.90;;
16826;SDS011;8530;49.540;8.576;2024-03-08T07:13:54;25.03;;;16.97;;
16826;SDS011;8530;49.540;8.576;2024-03-08T07:16:20;24.00;;;18.30;;
16826;SDS011;8530;49.540;8.576;2024-03-08T07:18:47;25.37;;;18.90;;
16826;SDS011;8530;49.540;8.576;2024-03-08T07:21:17;29.33;;;18.73;;
16826;SDS011;8530;49.540;8.576;2024-03-08T07:23:44;29.67;;;18.83;;
16826;SDS011;8530;49.540;8.576;2024-03-08T07:26:32;22.30;;;18.73;;
16826;SDS011;8530;49.540;8.576;2024-03-08T07:28:59;26.20;;;18.07;;
16826;SDS011;8530;49.540;8.576;2024-03-08T07:31:26;22.73;;;17.53;;
16826;SDS011;8530;49.540;8.576;2024-03-08T07:34:03;21.57;;;16.83;;
16826;SDS011;8530;49.540;8.576;2024-03-08T07:36:32;24.07;;;18.40;;
16826;SDS011;8530;49.540;8.576;2024-03-08T07:39:00;23.87;;;16.23;;
16826;SDS011;8530;49.540;8.576;2024-03-08T07:41:26;21.63;;;17.47;;
16826;SDS011;8530;49.540;8.576;2024-03-08T07:43:55;22.03;;;15.10;;
16826;SDS011;8530;49.540;8.576;2024-03-08T07:46:22;22.60;;;15.30;;
16826;SDS011;8530;49.540;8.576;2024-03-08T07:48:49;23.63;;;15.17;;
16826;SDS011;8530;49.540;8.576;2024-03-08T07:51:16;23.30;;;16.60;;
16826;SDS011;8530;49.540;8.576;2024-03-08T07:53:43;29.33;;;16.60;;
16826;SDS011;8530;49.540;8.576;2024-03-08T07:56:10;20.27;;;14.23;;
16826;SDS011;8530;49.540;8.576;2024-03-08T07:58:38;18.90;;;13.63;;
16826;SDS011;8530;49.540;8.576;2024-03-08T08:01:08;22.10;;;15.77;;
16826;SDS011;8530;49.540;8.576;2024-03-08T08:03:41;18.17;;;13.93;;
16826;SDS011;8530;49.540;8.576;2024-03-08T08:06:08;19.20;;;14.63;;
16826;SDS011;8530;49.540;8.576;2024-03-08T08:08:34;16.70;;;13.90;;
16826;SDS011;8530;49.540;8.576;2024-03-08T08:11:01;17.67;;;13.93;;
16826;SDS011;8530;49.540;8.576;2024-03-08T08:13:28;18.63;;;14.50;;
16826;SDS011;8530;49.540;8.576;2024-03-08T08:15:57;20.47;;;14.80;;
16826;SDS011;8530;49.540;8.576;2024-03-08T08:18:25;21.20;;;14.27;;
16826;SDS011;8530;49.540;8.576;2024-03-08T08:20:52;17.50;;;14.07;;
16826;SDS011;8530;49.540;8.576;2024-03-08T08:23:18;18.23;;;12.03;;
16826;SDS011;8530;49.540;8.576;2024-03-08T08:25:45;16.00;;;11.30;;
16826;SDS011;8530;49.540;8.576;2024-03-08T08:28:14;19.87;;;14.87;;
16826;SDS011;8530;49.540;8.576;2024-03-08T08:30:42;16.50;;;13.00;;
16826;SDS011;8530;49.540;8.576;2024-03-08T08:33:09;17.63;;;13.97;;
16826;SDS011;8530;49.540;8.576;2024-03-08T08:35:37;18.87;;;12.50;;
16826;SDS011;8530;49.540;8.576;2024-03-08T08:38:04;17.00;;;14.00;;
16826;SDS011;8530;49.540;8.576;2024-03-08T08:40:32;17.80;;;13.60;;
16826;SDS011;8530;49.540;8.576;2024-03-08T08:43:01;18.70;;;14.07;;
16826;SDS011;8530;49.540;8.576;2024-03-08T08:45:29;16.10;;;12.63;;
16826;SDS011;8530;49.540;8.576;2024-03-08T08:47:56;24.17;;;13.73;;
16826;SDS011;8530;49.540;8.576;2024-03-08T08:50:24;16.20;;;13.37;;
16826;SDS011;8530;49.540;8.576;2024-03-08T08:52:54;18.10;;;15.30;;
16826;SDS011;8530;49.540;8.576;2024-03-08T08:55:21;16.27;;;14.30;;
16826;SDS011;8530;49.540;8.576;2024-03-08T08:57:50;18.23;;;13.87;;
16826;SDS011;8530;49.540;8.576;2024-03-08T09:00:18;19.13;;;13.77;;
16826;SDS011;8530;49.540;8.576;2024-03-08T09:02:45;17.07;;;13.50;;
16826;SDS011;8530;49.540;8.576;2024-03-08T09:05:13;18.30;;;12.90;;
16826;SDS011;8530;49.540;8.576;2024-03-08T09:07:41;20.17;;;13.10;;
16826;SDS011;8530;49.540;8.576;2024-03-08T09:10:11;17.37;;;13.40;;
16826;SDS011;8530;49.540;8.576;2024-03-08T09:12:39;19.53;;;14.00;;
16826;SDS011;8530;49.540;8.576;2024-03-08T09:15:06;20.03;;;15.47;;
16826;SDS011;8530;49.540;8.576;2024-03-08T09:17:35;19.37;;;15.60;;
16826;SDS011;8530;49.540;8.576;2024-03-08T09:20:04;21.10;;;15.23;;
16826;SDS011;8530;49.540;8.576;2024-03-08T09:22:32;19.97;;;14.87;;
16826;SDS011;8530;49.540;8.576;2024-03-08T09:24:59;20.87;;;15.20;;
16826;SDS011;8530;49.540;8.576;2024-03-08T09:27:27;17.70;;;15.40;;
16826;SDS011;8530;49.540;8.576;2024-03-08T09:29:54;23.53;;;16.70;;
16826;SDS011;8530;49.540;8.576;2024-03-08T09:32:21;18.23;;;15.67;;
16826;SDS011;8530;49.540;8.576;2024-03-08T09:34:48;20.77;;;14.70;;
16826;SDS011;8530;49.540;8.576;2024-03-08T09:37:16;19.03;;;14.90;;
16826;SDS011;8530;49.540;8.576;2024-03-08T09:39:43;22.10;;;15.40;;
16826;SDS011;8530;49.540;8.576;2024-03-08T09:42:10;21.77;;;15.47;;
16826;SDS011;8530;49.540;8.576;2024-03-08T09:44:41;24.30;;;16.47;;
16826;SDS011;8530;49.540;8.576;2024-03-08T09:47:11;22.50;;;16.47;;
16826;SDS011;8530;49.540;8.576;2024-03-08T09:49:40;21.00;;;15.73;;
16826;SDS011;8530;49.540;8.576;2024-03-08T09:52:08;21.73;;;16.30;;
16826;SDS011;8530;49.540;8.576;2024-03-08T09:54:37;21.67;;;15.63;;
16826;SDS011;8530;49.540;8.576;2024-03-08T09:57:04;21.30;;;15.33;;
16826;SDS011;8530;49.540;8.576;2024-03-08T09:59:34;21.07;;;15.20;;
16826;SDS011;8530;49.540;8.576;2024-03-08T10:02:17;20.80;;;16.60;;
16826;SDS011;8530;49.540;8.576;2024-03-08T10:04:44;22.30;;;15.80;;
16826;SDS011;8530;49.540;8.576;2024-03-08T10:07:13;18.97;;;15.80;;
16826;SDS011;8530;49.540;8.576;2024-03-08T10:09:40;18.67;;;15.33;;
16826;SDS011;8530;49.540;8.576;2024-03-08T10:12:12;25.70;;;17.10;;
16826;SDS011;8530;49.540;8.576;2024-03-08T10:14:39;19.17;;;15.73;;
16826;SDS011;8530;49.540;8.576;2024-03-08T10:17:07;22.00;;;15.33;;
16826;SDS011;8530;49.540;8.576;2024-03-08T10:19:35;21.30;;;15.40;;
16826;SDS011;8530;49.540;8.576;2024-03-08T10:22:01;19.10;;;14.47;;
16826;SDS011;8530;49.540;8.576;2024-03-08T10:24:29;25.27;;;17.10;;
16826;SDS011;8530;49.540;8.576;2024-03-08T10:26:58;21.67;;;16.30;;
16826;SDS011;8530;49.540;8.576;2024-03-08T10:29:26;22.13;;;14.30;;
16826;SDS011;8530;49.540;8.576;2024-03-08T10:31:53;21.87;;;15.53;;
16826;SDS011;8530;49.540;8.576;2024-03-08T10:34:21;24.03;;;15.30;;
16826;SDS011;8530;49.540;8.576;2024-03-08T10:36:50;21.40;;;14.90;;
16826;SDS011;8530;49.540;8.576;2024-03-08T10:39:20;21.97;;;16.30;;
16826;SDS011;8530;49.540;8.576;2024-03-08T10:41:50;19.57;;;15.50;;
16826;SDS011;8530;49.540;8.576;2024-03-08T10:44:23;19.20;;;14.27;;
16826;SDS011;8530;49.540;8.576;2024-03-08T10:47:02;21.57;;;17.90;;
16826;SDS011;8530;49.540;8.576;2024-03-08T10:49:37;22.63;;;16.83;;
16826;SDS011;8530;49.540;8.576;2024-03-08T10:52:06;20.23;;;14.27;;
16826;SDS011;8530;49.540;8.576;2024-03-08T10:54:34;22.20;;;16.00;;
16826;SDS011;8530;49.540;8.576;2024-03-08T10:57:05;20.63;;;14.27;;
16826;SDS011;8530;49.540;8.576;2024-03-08T10:59:33;22.00;;;16.13;;
16826;SDS011;8530;49.540;8.576;2024-03-08T11:02:01;18.90;;;15.33;;
16826;SDS011;8530;49.540;8.576;2024-03-08T11:04:30;19.37;;;15.10;;
16826;SDS011;8530;49.540;8.576;2024-03-08T11:07:00;23.20;;;17.00;;
16826;SDS011;8530;49.540;8.576;2024-03-08T11:09:33;20.97;;;15.63;;
16826;SDS011;8530;49.540;8.576;2024-03-08T11:12:18;19.70;;;15.10;;
16826;SDS011;8530;49.540;8.576;2024-03-08T11:14:46;22.80;;;15.40;;
16826;SDS011;8530;49.540;8.576;2024-03-08T11:17:15;17.70;;;14.23;;
16826;SDS011;8530;49.540;8.576;2024-03-08T11:19:46;20.67;;;16.20;;
16826;SDS011;8530;49.540;8.576;2024-03-08T11:22:23;20.43;;;14.10;;
16826;SDS011;8530;49.540;8.576;2024-03-08T11:24:59;19.73;;;14.47;;
16826;SDS011;8530;49.540;8.576;2024-03-08T11:27:28;21.13;;;15.50;;
16826;SDS011;8530;49.540;8.576;2024-03-08T11:29:59;19.97;;;14.70;;
16826;SDS011;8530;49.540;8.576;2024-03-08T11:32:34;22.10;;;16.07;;
16826;SDS011;8530;49.540;8.576;2024-03-08T11:35:03;20.20;;;13.53;;
16826;SDS011;8530;49.540;8.576;2024-03-08T11:37:34;19.40;;;14.17;;
16826;SDS011;8530;49.540;8.576;2024-03-08T11:40:06;19.40;;;15.77;;
16826;SDS011;8530;49.540;8.576;2024-03-08T11:42:39;19.80;;;14.30;;
16826;SDS011;8530;49.540;8.576;2024-03-08T11:45:08;17.47;;;13.90;;
16826;SDS011;8530;49.540;8.576;2024-03-08T11:47:36;27.60;;;15.80;;
16826;SDS011;8530;49.540;8.576;2024-03-08T11:50:05;17.13;;;13.43;;
16826;SDS011;8530;49.540;8.576;2024-03-08T11:52:36;20.47;;;14.93;;
16826;SDS011;8530;49.540;8.576;2024-03-08T11:55:04;19.70;;;15.00;;
16826;SDS011;8530;49.540;8.576;2024-03-08T11:57:32;23.33;;;15.70;;
16826;SDS011;8530;49.540;8.576;2024-03-08T11:59:59;21.90;;;14.40;;
16826;SDS011;8530;49.540;8.576;2024-03-08T12:02:31;20.23;;;13.90;;
16826;SDS011;8530;49.540;8.576;2024-03-08T12:05:00;19.73;;;13.70;;
16826;SDS011;8530;49.540;8.576;2024-03-08T12:07:28;20.17;;;14.37;;
16826;SDS011;8530;49.540;8.576;2024-03-08T12:12:43;20.10;;;15.77;;
16826;SDS011;8530;49.540;8.576;2024-03-08T12:15:10;20.73;;;13.90;;
16826;SDS011;8530;49.540;8.576;2024-03-08T12:17:37;20.83;;;16.10;;
16826;SDS011;8530;49.540;8.576;2024-03-08T12:20:11;16.37;;;14.47;;
16826;SDS011;8530;49.540;8.576;2024-03-08T12:22:40;16.73;;;12.40;;
16826;SDS011;8530;49.540;8.576;2024-03-08T12:25:08;20.47;;;13.93;;
16826;SDS011;8530;49.540;8.576;2024-03-08T12:27:38;20.17;;;12.93;;
16826;SDS011;8530;49.540;8.576;2024-03-08T12:30:15;20.63;;;13.67;;
16826;SDS011;8530;49.540;8.576;2024-03-08T12:32:46;20.40;;;14.37;;
16826;SDS011;8530;49.540;8.576;2024-03-08T12:35:14;20.67;;;14.83;;
16826;SDS011;8530;49.540;8.576;2024-03-08T12:37:41;19.60;;;14.07;;
16826;SDS011;8530;49.540;8.576;2024-03-08T12:40:08;20.80;;;14.67;;
16826;SDS011;8530;49.540;8.576;2024-03-08T12:42:38;19.50;;;13.83;;
16826;SDS011;8530;49.540;8.576;2024-03-08T12:45:05;22.63;;;15.83;;
16826;SDS011;8530;49.540;8.576;2024-03-08T12:47:35;20.50;;;14.83;;
16826;SDS011;8530;49.540;8.576;2024-03-08T12:50:02;19.23;;;13.00;;
16826;SDS011;8530;49.540;8.576;2024-03-08T12:52:29;20.70;;;15.80;;
16826;SDS011;8530;49.540;8.576;2024-03-08T12:54:55;18.30;;;13.80;;
16826;SDS011;8530;49.540;8.576;2024-03-08T12:57:22;24.23;;;14.37;;
16826;SDS011;8530;49.540;8.576;2024-03-08T12:59:53;21.00;;;14.30;;
16826;SDS011;8530;49.540;8.576;2024-03-08T13:02:20;20.90;;;14.70;;
16826;SDS011;8530;49.540;8.576;2024-03-08T13:04:49;21.53;;;15.83;;
16826;SDS011;8530;49.540;8.576;2024-03-08T13:07:20;17.63;;;14.00;;
16826;SDS011;8530;49.540;8.576;2024-03-08T13:09:48;18.87;;;14.13;;
16826;SDS011;8530;49.540;8.576;2024-03-08T13:12:15;23.70;;;14.03;;
16826;SDS011;8530;49.540;8.576;2024-03-08T13:14:42;17.37;;;12.27;;
16826;SDS011;8530;49.540;8.576;2024-03-08T13:17:10;19.73;;;14.90;;
16826;SDS011;8530;49.540;8.576;2024-03-08T13:19:37;17.50;;;13.40;;
16826;SDS011;8530;49.540;8.576;2024-03-08T13:22:04;19.33;;;14.07;;
16826;SDS011;8530;49.540;8.576;2024-03-08T13:24:32;26.60;;;14.70;;
16826;SDS011;8530;49.540;8.576;2024-03-08T13:26:59;17.13;;;14.30;;
16826;SDS011;8530;49.540;8.576;2024-03-08T13:29:26;24.27;;;15.30;;
16826;SDS011;8530;49.540;8.576;2024-03-08T13:31:52;18.47;;;14.37;;
16826;SDS011;8530;49.540;8.576;2024-03-08T13:34:23;22.77;;;13.80;;
16826;SDS011;8530;49.540;8.576;2024-03-08T13:36:54;17.83;;;12.73;;
16826;SDS011;8530;49.540;8.576;2024-03-08T13:39:25;30.13;;;14.53;;
16826;SDS011;8530;49.540;8.576;2024-03-08T13:41:51;18.70;;;14.07;;
16826;SDS011;8530;49.540;8.576;2024-03-08T13:44:18;19.00;;;14.30;;
16826;SDS011;8530;49.540;8.576;2024-03-08T13:46:46;23.00;;;15.43;;
16826;SDS011;8530;49.540;8.576;2024-03-08T13:49:16;19.73;;;13.73;;
16826;SDS011;8530;49.540;8.576;2024-03-08T13:51:44;21.33;;;13.97;;
16826;SDS011;8530;49.540;8.576;2024-03-08T13:54:11;18.43;;;12.97;;
16826;SDS011;8530;49.540;8.576;2024-03-08T13:56:37;18.57;;;14.20;;
16826;SDS011;8530;49.540;8.576;2024-03-08T13:59:04;17.77;;;14.60;;
16826;SDS011;8530;49.540;8.576;2024-03-08T14:01:31;19.80;;;13.90;;
16826;SDS011;8530;49.540;8.576;2024-03-08T14:04:00;17.70;;;13.00;;
16826;SDS011;8530;49.540;8.576;2024-03-08T14:06:28;16.97;;;13.50;;
16826;SDS011;8530;49.540;8.576;2024-03-08T14:08:57;15.23;;;12.20;;
16826;SDS011;8530;49.540;8.576;2024-03-08T14:11:23;21.40;;;12.57;;
16826;SDS011;8530;49.540;8.576;2024-03-08T14:13:50;17.93;;;13.27;;
16826;SDS011;8530;49.540;8.576;2024-03-08T14:16:17;18.33;;;12.90;;
16826;SDS011;8530;49.540;8.576;2024-03-08T14:18:44;19.33;;;13.53;;
16826;SDS011;8530;49.540;8.576;2024-03-08T14:21:11;16.77;;;12.10;;
16826;SDS011;8530;49.540;8.576;2024-03-08T14:23:40;18.60;;;12.50;;
16826;SDS011;8530;49.540;8.576;2024-03-08T14:26:09;17.67;;;13.00;;
16826;SDS011;8530;49.540;8.576;2024-03-08T14:28:36;19.17;;;13.93;;
16826;SDS011;8530;49.540;8.576;2024-03-08T14:31:03;19.43;;;12.97;;
16826;SDS011;8530;49.540;8.576;2024-03-08T14:33:35;19.07;;;13.50;;
16826;SDS011;8530;49.540;8.576;2024-03-08T14:36:02;19.50;;;14.60;;
16826;SDS011;8530;49.540;8.576;2024-03-08T14:38:31;17.90;;;12.80;;
16826;SDS011;8530;49.540;8.576;2024-03-08T14:40:57;17.40;;;12.57;;